Time;durP1;ratioP1;P1;durP2;ratioP2;P2;SDS_P1;SDS_P2;PMS_P1;PMS_P2;Temp;Humidity;BMP_temperature;BMP_pressure;BME280_temperature;BME280_humidity;BME280_pressure;Samples;Min_cycle;Max_cycle;Signal;HPM_P1;HPM_P2
2021/09/12 00:02:10;;;;;;;10.40;6.00;;;;;;;16.94;88.21;100980.36;110756;1200;61830;-81
2021/09/12 00:04:37;;;;;;;9.00;6.60;;;;;;;16.92;88.09;100983.79;110953;1205;62006;-81
2021/09/12 00:07:04;;;;;;;8.20;5.70;;;;;;;16.90;88.44;100982.34;110818;1206;61812;-81
2021/09/12 00:09:31;;;;;;;7.90;5.90;;;;;;;16.89;88.41;100979.52;110776;1199;61899;-82
2021/09/12 00:11:58;;;;;;;8.00;5.50;;;;;;;16.89;88.52;100977.41;111282;1206;73576;-81
2021/09/12 00:14:24;;;;;;;9.00;6.30;;;;;;;16.88;88.83;100973.95;111159;1206;61957;-82
2021/09/12 00:16:51;;;;;;;11.20;5.70;;;;;;;16.88;88.73;100970.03;111105;1200;61896;-82
2021/09/12 00:19:18;;;;;;;8.30;5.30;;;;;;;16.89;88.81;100968.67;111215;1206;75341;-84
2021/09/12 00:21:45;;;;;;;8.00;6.20;;;;;;;16.89;88.72;100963.27;111257;1206;71785;-82
2021/09/12 00:24:11;;;;;;;6.70;5.40;;;;;;;16.89;88.97;100964.30;111198;1201;61934;-83
2021/09/12 00:26:38;;;;;;;8.60;5.20;;;;;;;16.89;89.22;100968.80;111026;1206;61847;-82
2021/09/12 00:29:04;;;;;;;7.90;5.10;;;;;;;16.90;89.40;100969.04;110985;1206;61877;-82
2021/09/12 00:31:31;;;;;;;8.10;5.30;;;;;;;16.91;89.55;100966.02;110964;1199;61915;-84
2021/09/12 00:33:57;;;;;;;6.10;5.20;;;;;;;16.91;89.75;100963.76;111280;1198;61812;-80
2021/09/12 00:36:24;;;;;;;7.30;5.60;;;;;;;16.91;89.93;100967.30;111856;1206;61906;-81
2021/09/12 00:38:50;;;;;;;8.30;5.40;;;;;;;16.92;90.17;100968.09;111068;1199;61980;-81
2021/09/12 00:41:17;;;;;;;8.60;5.50;;;;;;;16.93;89.99;100967.17;110955;1200;61855;-80
2021/09/12 00:43:44;;;;;;;7.40;4.70;;;;;;;16.95;90.01;100961.61;111100;1206;75482;-80
2021/09/12 00:46:11;;;;;;;8.20;5.20;;;;;;;16.96;89.96;100961.40;111054;1205;72051;-82
2021/09/12 00:48:42;;;;;;;8.90;5.60;;;;;;;16.97;90.03;100959.90;111255;1199;72329;-82
2021/09/12 00:51:09;;;;;;;8.70;6.10;;;;;;;16.97;90.01;100957.06;110979;1206;61835;-82
2021/09/12 00:53:37;;;;;;;8.30;5.50;;;;;;;16.98;89.79;100954.41;110973;1206;61843;-80
2021/09/12 00:56:05;;;;;;;7.10;5.40;;;;;;;16.97;90.01;100957.19;112434;1205;76445;-81
2021/09/12 00:58:35;;;;;;;8.00;5.90;;;;;;;16.97;90.24;100958.41;113141;1201;70837;-80
2021/09/12 01:01:01;;;;;;;6.80;5.30;;;;;;;16.96;90.14;100961.60;113063;1206;73951;-79
2021/09/12 01:03:28;;;;;;;9.10;6.60;;;;;;;16.96;90.28;100966.48;113155;1199;61575;-79
2021/09/12 01:05:55;;;;;;;7.90;5.10;;;;;;;16.96;90.29;100963.26;112999;1200;61904;-81
2021/09/12 01:08:22;;;;;;;6.50;5.30;;;;;;;16.97;90.28;100964.23;112056;1206;75481;-81
2021/09/12 01:10:48;;;;;;;7.70;4.70;;;;;;;16.97;90.28;100964.94;111812;1206;61883;-80
2021/09/12 01:13:16;;;;;;;9.40;5.50;;;;;;;16.96;90.45;100967.54;111559;1201;72564;-80
2021/09/12 01:15:42;;;;;;;7.00;4.30;;;;;;;16.96;90.56;100968.45;111443;1206;61896;-81
2021/09/12 01:18:09;;;;;;;12.60;5.30;;;;;;;16.94;91.01;100970.77;111239;1206;61873;-81
2021/09/12 01:20:35;;;;;;;6.90;5.20;;;;;;;16.95;91.01;100972.65;111123;1206;61910;-79
2021/09/12 01:23:06;;;;;;;7.90;5.60;;;;;;;16.96;91.00;100970.75;111091;1206;61780;-82
2021/09/12 01:25:36;;;;;;;7.80;5.40;;;;;;;16.97;91.34;100970.67;111285;1200;73175;-81
2021/09/12 01:28:05;;;;;;;6.30;4.80;;;;;;;16.98;91.44;100967.13;111147;1206;61880;-82
2021/09/12 01:30:32;;;;;;;13.60;6.30;;;;;;;16.99;91.49;100963.73;111070;1206;61868;-81
2021/09/12 01:32:59;;;;;;;8.60;5.20;;;;;;;17.00;91.40;100958.77;110911;1206;75162;-80
2021/09/12 01:35:25;;;;;;;9.40;5.10;;;;;;;17.01;91.46;100960.34;110941;1206;61911;-81
2021/09/12 01:37:52;;;;;;;7.30;5.50;;;;;;;17.03;91.33;100957.38;110895;1206;61829;-82
2021/09/12 01:40:18;;;;;;;7.60;5.60;;;;;;;17.03;91.36;100950.95;111264;1206;61898;-81
2021/09/12 01:42:45;;;;;;;7.40;5.50;;;;;;;17.03;91.24;100949.63;111060;1206;61880;-81
2021/09/12 01:45:12;;;;;;;7.20;5.00;;;;;;;17.02;91.32;100946.13;110583;1205;75475;-81
2021/09/12 01:47:40;;;;;;;7.00;4.40;;;;;;;17.00;91.13;100944.94;110711;1206;62590;-80
2021/09/12 01:50:07;;;;;;;7.30;5.20;;;;;;;17.00;91.25;100943.61;110704;1207;72943;-80
2021/09/12 01:52:37;;;;;;;9.30;5.70;;;;;;;16.99;91.36;100941.67;110884;1206;61902;-80
2021/09/12 01:55:04;;;;;;;8.90;5.20;;;;;;;16.98;91.50;100942.25;110699;1206;61875;-81
2021/09/12 01:57:30;;;;;;;6.50;5.20;;;;;;;16.96;91.61;100942.46;110891;1206;75071;-80
2021/09/12 01:59:57;;;;;;;7.80;4.60;;;;;;;16.95;91.59;100941.77;110741;1206;61982;-81
2021/09/12 02:02:23;;;;;;;7.10;5.60;;;;;;;16.93;92.00;100940.59;110787;1206;61958;-82
2021/09/12 02:04:50;;;;;;;6.80;5.40;;;;;;;16.90;92.42;100942.73;111013;1207;62749;-81
2021/09/12 02:07:17;;;;;;;6.80;5.50;;;;;;;16.87;92.98;100945.10;110677;1199;61784;-79
2021/09/12 02:09:43;;;;;;;7.90;5.30;;;;;;;16.83;92.82;100943.33;110631;1206;61979;-81
2021/09/12 02:12:10;;;;;;;11.50;6.10;;;;;;;16.81;93.09;100943.81;110741;1206;61897;-81
2021/09/12 02:14:36;;;;;;;8.20;5.70;;;;;;;16.78;93.30;100948.38;110734;1206;61880;-82
2021/09/12 02:17:03;;;;;;;6.60;4.80;;;;;;;16.76;93.49;100952.02;110602;1207;61883;-82
2021/09/12 02:19:30;;;;;;;13.90;6.70;;;;;;;16.75;93.93;100953.54;110723;1206;61989;-81
2021/09/12 02:21:56;;;;;;;8.20;5.70;;;;;;;16.75;94.08;100950.91;110689;1206;61855;-81
2021/09/12 02:24:23;;;;;;;8.70;6.00;;;;;;;16.75;94.30;100951.56;110656;1207;61913;-79
2021/09/12 02:26:49;;;;;;;7.00;4.70;;;;;;;16.76;94.17;100950.36;110644;1207;61919;-80
2021/09/12 02:29:16;;;;;;;7.80;5.20;;;;;;;16.77;93.92;100949.95;110859;1206;61886;-79
2021/09/12 02:31:42;;;;;;;8.20;5.40;;;;;;;16.77;94.02;100951.52;110844;1206;62010;-80
2021/09/12 02:34:09;;;;;;;8.20;5.50;;;;;;;16.78;93.93;100952.95;110662;1206;61927;-80
2021/09/12 02:36:35;;;;;;;11.00;5.50;;;;;;;16.79;93.70;100954.77;110823;1206;62441;-81
2021/09/12 02:39:02;;;;;;;8.70;5.60;;;;;;;16.79;93.85;100951.38;110626;1201;61986;-79
2021/09/12 02:41:29;;;;;;;7.60;4.90;;;;;;;16.80;93.79;100950.77;110856;1206;61893;-80
2021/09/12 02:43:55;;;;;;;9.80;5.50;;;;;;;16.81;93.69;100952.30;110680;1207;61931;-81
2021/09/12 02:46:22;;;;;;;7.00;5.40;;;;;;;16.82;93.76;100952.69;110761;1206;61887;-80
2021/09/12 02:48:48;;;;;;;7.40;5.90;;;;;;;16.82;93.55;100954.38;110692;1206;61996;-81
2021/09/12 02:51:15;;;;;;;6.40;4.90;;;;;;;16.82;93.44;100950.78;110853;1203;62781;-79
2021/09/12 02:53:42;;;;;;;9.00;5.30;;;;;;;16.82;93.50;100948.04;110711;1199;62323;-81
2021/09/12 02:56:08;;;;;;;8.00;6.00;;;;;;;16.82;93.52;100943.48;110670;1201;61882;-81
2021/09/12 02:58:34;;;;;;;7.30;5.40;;;;;;;16.82;93.53;100950.38;110795;1206;61849;-81
2021/09/12 03:01:01;;;;;;;9.50;6.00;;;;;;;16.80;93.71;100950.52;110606;1206;62562;-81
2021/09/12 03:03:28;;;;;;;7.80;5.50;;;;;;;16.79;93.71;100955.67;110954;1206;72507;-81
2021/09/12 03:05:55;;;;;;;10.90;6.20;;;;;;;16.79;93.77;100953.44;110871;1207;62288;-79
2021/09/12 03:08:22;;;;;;;8.70;6.10;;;;;;;16.78;93.96;100957.28;110845;1199;62483;-79
2021/09/12 03:10:48;;;;;;;10.60;5.70;;;;;;;16.77;94.03;100958.81;110910;1206;61876;-80
2021/09/12 03:13:15;;;;;;;9.80;6.40;;;;;;;16.77;94.04;100956.92;110791;1206;71951;-81
2021/09/12 03:15:42;;;;;;;8.90;6.50;;;;;;;16.76;94.01;100957.54;110815;1206;72592;-81
2021/09/12 03:18:08;;;;;;;7.00;5.60;;;;;;;16.76;94.02;100958.32;110866;1206;62618;-82
2021/09/12 03:20:35;;;;;;;7.80;6.20;;;;;;;16.76;94.09;100955.98;110839;1202;61963;-81
2021/09/12 03:23:03;;;;;;;10.40;6.80;;;;;;;16.75;94.03;100955.68;110856;1207;61856;-79
2021/09/12 03:25:31;;;;;;;8.00;5.70;;;;;;;16.77;93.89;100955.85;111082;1206;71243;-80
2021/09/12 03:27:58;;;;;;;8.10;6.10;;;;;;;16.77;94.11;100950.66;110884;1206;71468;-80
2021/09/12 03:30:25;;;;;;;6.80;5.80;;;;;;;16.77;94.02;100946.04;110686;1201;61963;-82
2021/09/12 03:32:51;;;;;;;9.10;5.50;;;;;;;16.76;94.04;100948.77;110677;1206;61876;-80
2021/09/12 03:35:18;;;;;;;7.40;5.20;;;;;;;16.76;94.17;100945.95;110762;1206;74327;-81
2021/09/12 03:37:45;;;;;;;8.50;5.40;;;;;;;16.75;94.26;100946.08;110692;1207;72084;-81
2021/09/12 03:40:12;;;;;;;9.00;6.10;;;;;;;16.74;94.10;100944.02;110687;1207;61853;-81
2021/09/12 03:42:39;;;;;;;8.00;6.00;;;;;;;16.74;94.14;100943.04;110753;1207;63016;-82
2021/09/12 03:45:06;;;;;;;11.70;5.30;;;;;;;16.72;94.27;100939.99;112675;1207;61899;-80
2021/09/12 03:47:32;;;;;;;9.00;6.20;;;;;;;16.72;94.13;100933.56;113708;1198;75523;-81
2021/09/12 03:49:59;;;;;;;9.40;6.00;;;;;;;16.73;94.24;100935.49;113725;1206;70812;-81
2021/09/12 03:52:25;;;;;;;8.30;5.20;;;;;;;16.73;94.11;100936.16;112620;1198;70287;-81
2021/09/12 03:54:52;;;;;;;6.50;5.00;;;;;;;16.74;94.15;100933.15;111746;1206;61812;-84
2021/09/12 03:57:20;;;;;;;7.70;5.10;;;;;;;16.75;94.12;100938.96;111274;1206;61797;-85
2021/09/12 03:59:46;;;;;;;7.40;5.10;;;;;;;16.77;94.00;100942.13;111052;1206;75252;-81
2021/09/12 04:02:13;;;;;;;7.90;5.50;;;;;;;16.77;94.16;100943.53;110833;1206;61931;-81
2021/09/12 04:04:39;;;;;;;7.10;4.90;;;;;;;16.77;94.13;100944.19;110850;1206;72529;-81
2021/09/12 04:07:09;;;;;;;5.70;4.10;;;;;;;16.78;94.21;100943.56;110897;1199;61819;-80
2021/09/12 04:09:35;;;;;;;8.80;6.20;;;;;;;16.77;94.27;100946.16;110723;1207;61857;-80
2021/09/12 04:12:02;;;;;;;6.90;4.50;;;;;;;16.77;94.22;100943.33;110891;1206;61813;-80
2021/09/12 04:14:28;;;;;;;8.60;6.10;;;;;;;16.76;94.57;100946.13;110634;1207;71760;-80
2021/09/12 04:16:55;;;;;;;9.10;6.60;;;;;;;16.76;94.73;100943.77;110689;1207;61897;-80
2021/09/12 04:19:21;;;;;;;10.90;7.70;;;;;;;16.76;94.84;100946.45;110790;1206;61904;-82
2021/09/12 04:21:48;;;;;;;8.40;5.80;;;;;;;16.76;95.08;100947.69;110697;1198;61875;-82
2021/09/12 04:24:14;;;;;;;8.70;6.50;;;;;;;16.75;95.06;100944.92;110706;1206;61929;-80
2021/09/12 04:26:41;;;;;;;9.80;6.40;;;;;;;16.76;94.96;100947.07;110642;1207;61899;-79
2021/09/12 04:29:07;;;;;;;10.00;6.40;;;;;;;16.76;94.98;100949.38;110731;1203;62176;-82
2021/09/12 04:31:34;;;;;;;10.10;6.80;;;;;;;16.75;95.24;100944.45;110768;1207;61849;-81
2021/09/12 04:34:00;;;;;;;7.80;5.00;;;;;;;16.75;95.24;100946.41;110751;1207;61803;-81
2021/09/12 04:36:27;;;;;;;9.40;6.90;;;;;;;16.74;95.42;100945.09;110659;1207;61903;-81
2021/09/12 04:38:54;;;;;;;11.80;8.30;;;;;;;16.75;95.44;100949.14;110746;1207;61895;-82
2021/09/12 04:41:20;;;;;;;13.10;8.50;;;;;;;16.76;95.76;100950.83;110790;1207;61936;-81
2021/09/12 04:43:47;;;;;;;12.20;7.70;;;;;;;16.76;95.83;100949.34;110821;1199;62746;-82
2021/09/12 04:46:14;;;;;;;10.20;7.10;;;;;;;16.77;95.76;100951.73;110755;1206;62027;-82
2021/09/12 04:48:44;;;;;;;11.60;8.00;;;;;;;16.78;95.94;100949.29;110686;1206;75374;-82
2021/09/12 04:51:21;;;;;;;14.80;9.00;;;;;;;16.78;95.94;100950.32;110826;1208;70908;-82
2021/09/12 04:53:48;;;;;;;13.70;9.60;;;;;;;16.79;95.81;100948.95;110676;1206;73517;-81
2021/09/12 04:56:14;;;;;;;12.50;9.10;;;;;;;16.80;95.94;100951.34;110661;1198;61889;-82
2021/09/12 04:58:41;;;;;;;12.50;8.40;;;;;;;16.80;95.76;100952.67;110684;1199;61929;-82
2021/09/12 05:01:07;;;;;;;14.90;9.30;;;;;;;16.81;95.99;100948.85;110790;1198;61889;-81
2021/09/12 05:03:39;;;;;;;13.70;9.00;;;;;;;16.82;96.04;100950.22;110579;1201;72194;-82
2021/09/12 05:06:06;;;;;;;16.40;9.80;;;;;;;16.82;96.48;100951.53;110680;1208;72384;-81
2021/09/12 05:08:33;;;;;;;15.10;10.00;;;;;;;16.83;96.48;100955.02;110668;1207;62541;-81
2021/09/12 05:11:00;;;;;;;16.30;10.20;;;;;;;16.85;96.40;100957.25;110786;1205;61878;-82
2021/09/12 05:13:27;;;;;;;14.30;8.80;;;;;;;16.87;96.39;100960.67;110776;1207;76686;-82
2021/09/12 05:15:53;;;;;;;13.20;10.50;;;;;;;16.89;96.44;100962.56;110836;1206;71984;-82
2021/09/12 05:18:21;;;;;;;13.50;9.50;;;;;;;16.89;96.47;100958.56;111408;1207;75073;-82
2021/09/12 05:20:48;;;;;;;15.10;10.70;;;;;;;16.90;96.21;100961.66;111134;1201;61886;-81
2021/09/12 05:23:15;;;;;;;20.10;9.80;;;;;;;16.93;96.10;100962.05;110680;1206;62543;-82
2021/09/12 05:25:41;;;;;;;11.80;8.20;;;;;;;16.95;96.12;100967.61;110680;1207;76420;-81
2021/09/12 05:28:08;;;;;;;15.10;11.20;;;;;;;16.97;95.96;100968.54;110676;1206;61918;-81
2021/09/12 05:30:35;;;;;;;12.60;8.30;;;;;;;16.98;96.09;100974.09;110720;1207;61900;-81
2021/09/12 05:33:01;;;;;;;17.30;10.90;;;;;;;16.99;95.98;100972.69;110721;1207;62915;-81
2021/09/12 05:35:28;;;;;;;18.40;10.80;;;;;;;17.00;95.86;100971.58;110714;1203;61891;-81
2021/09/12 05:37:54;;;;;;;19.80;11.00;;;;;;;17.03;95.91;100972.22;110624;1207;61834;-82
2021/09/12 05:40:21;;;;;;;14.30;9.70;;;;;;;17.05;95.68;100971.23;110702;1207;62535;-86
2021/09/12 05:42:49;;;;;;;16.40;10.90;;;;;;;17.08;95.43;100970.31;111010;1206;74230;-80
2021/09/12 05:45:16;;;;;;;16.80;10.30;;;;;;;17.12;95.41;100972.77;111405;1207;61822;-81
2021/09/12 05:47:42;;;;;;;15.90;10.40;;;;;;;17.16;95.39;100966.98;110763;1207;61914;-80
2021/09/12 05:50:09;;;;;;;13.90;11.10;;;;;;;17.20;95.27;100971.21;110713;1206;76330;-80
2021/09/12 05:52:36;;;;;;;21.20;11.60;;;;;;;17.23;95.08;100973.89;110564;1207;72337;-80
2021/09/12 05:55:04;;;;;;;16.00;10.70;;;;;;;17.24;95.02;100972.92;110992;1203;72684;-79
2021/09/12 05:57:30;;;;;;;16.10;10.30;;;;;;;17.26;94.85;100979.27;110770;1203;62773;-80
2021/09/12 05:59:57;;;;;;;15.40;11.20;;;;;;;17.28;94.77;100978.61;110637;1206;61825;-80
2021/09/12 06:02:24;;;;;;;15.80;10.70;;;;;;;17.31;94.66;100980.95;110873;1207;74852;-80
2021/09/12 06:04:51;;;;;;;15.60;10.70;;;;;;;17.32;94.76;100981.93;110660;1206;70984;-82
2021/09/12 06:07:18;;;;;;;13.70;10.30;;;;;;;17.34;94.82;100984.60;110670;1206;61844;-84
2021/09/12 06:09:44;;;;;;;15.90;10.10;;;;;;;17.37;94.82;100986.48;110714;1206;61793;-82
2021/09/12 06:12:11;;;;;;;19.60;11.60;;;;;;;17.41;94.82;100982.05;110694;1207;61892;-81
2021/09/12 06:14:37;;;;;;;15.90;10.30;;;;;;;17.43;94.60;100988.85;110822;1208;62684;-80
2021/09/12 06:17:07;;;;;;;16.30;11.50;;;;;;;17.46;94.56;100987.36;110655;1205;72404;-81
2021/09/12 06:19:35;;;;;;;15.90;11.10;;;;;;;17.48;94.53;100991.31;110660;1199;72666;-81
2021/09/12 06:22:05;;;;;;;13.60;10.40;;;;;;;17.49;94.34;100990.77;110846;1206;61906;-80
2021/09/12 06:24:33;;;;;;;15.60;10.40;;;;;;;17.51;94.41;100989.60;110687;1207;61887;-81
2021/09/12 06:27:00;;;;;;;15.30;11.20;;;;;;;17.52;94.42;100986.00;110658;1208;75557;-81
2021/09/12 06:29:26;;;;;;;16.10;10.60;;;;;;;17.57;94.46;100984.75;110931;1205;70112;-80
2021/09/12 06:31:53;;;;;;;18.40;10.90;;;;;;;17.61;94.36;100985.56;110806;1203;73647;-80
2021/09/12 06:34:20;;;;;;;17.60;12.10;;;;;;;17.66;94.15;100990.11;110757;1199;61860;-81
2021/09/12 06:36:46;;;;;;;19.20;11.60;;;;;;;17.71;93.83;100994.21;110829;1207;61886;-81
2021/09/12 06:39:14;;;;;;;15.20;9.80;;;;;;;17.72;93.52;100995.81;110846;1207;61822;-81
2021/09/12 06:41:41;;;;;;;17.80;10.40;;;;;;;17.74;93.52;100998.23;110757;1207;72106;-81
2021/09/12 06:44:07;;;;;;;13.40;8.30;;;;;;;17.76;93.38;100999.44;110642;1207;72567;-82
2021/09/12 06:46:34;;;;;;;13.20;9.20;;;;;;;17.76;93.36;101001.90;110925;1207;61988;-81
2021/09/12 06:49:01;;;;;;;15.20;11.10;;;;;;;17.76;93.25;101002.73;110948;1205;61887;-81
2021/09/12 06:51:27;;;;;;;17.00;11.40;;;;;;;17.77;93.18;101002.32;111032;1207;62509;-82
2021/09/12 06:53:54;;;;;;;16.20;10.40;;;;;;;17.78;93.64;101001.45;111336;1207;61908;-80
2021/09/12 06:56:20;;;;;;;15.00;10.50;;;;;;;17.78;93.89;101002.14;111102;1208;61990;-80
2021/09/12 06:58:47;;;;;;;15.50;11.50;;;;;;;17.77;93.92;101000.17;110608;1208;61801;-81
2021/09/12 07:01:13;;;;;;;17.00;11.40;;;;;;;17.78;94.09;101002.67;110758;1207;61816;-79
2021/09/12 07:03:40;;;;;;;15.80;11.10;;;;;;;17.79;94.20;101005.77;110824;1205;75199;-80
2021/09/12 07:06:08;;;;;;;18.30;11.50;;;;;;;17.81;94.23;101003.02;110808;1207;70690;-81
2021/09/12 07:08:34;;;;;;;15.40;11.30;;;;;;;17.81;94.27;101001.17;110802;1208;73593;-80
2021/09/12 07:11:01;;;;;;;15.70;11.50;;;;;;;17.80;94.26;101000.10;110827;1205;61904;-81
2021/09/12 07:13:27;;;;;;;14.90;10.60;;;;;;;17.78;94.29;100998.44;111838;1206;61814;-82
2021/09/12 07:15:54;;;;;;;17.40;10.30;;;;;;;17.76;94.97;100999.98;111118;1200;75431;-83
2021/09/12 07:18:21;;;;;;;15.90;9.60;;;;;;;17.76;95.25;100998.89;111344;1203;72158;-81
2021/09/12 07:20:48;;;;;;;17.30;11.60;;;;;;;17.75;95.46;101000.17;110910;1207;73831;-80
2021/09/12 07:23:14;;;;;;;16.20;11.20;;;;;;;17.78;95.68;101001.60;110930;1205;61906;-80
2021/09/12 07:25:40;;;;;;;16.30;11.40;;;;;;;17.80;95.56;101002.25;110928;1207;61873;-81
2021/09/12 07:28:07;;;;;;;17.60;10.80;;;;;;;17.81;95.66;101001.71;110796;1208;61990;-75
2021/09/12 07:30:33;;;;;;;15.80;11.20;;;;;;;17.81;95.44;101003.77;110528;1198;61887;-74
2021/09/12 07:33:00;;;;;;;17.20;12.20;;;;;;;17.80;95.39;101004.89;110579;1206;61882;-75
2021/09/12 07:35:26;;;;;;;17.50;10.70;;;;;;;17.78;95.24;101001.98;110525;1208;62314;-75
2021/09/12 07:37:53;;;;;;;17.40;11.90;;;;;;;17.76;95.50;101005.25;110521;1208;61906;-74
2021/09/12 07:40:19;;;;;;;17.70;12.60;;;;;;;17.76;95.70;101002.56;110543;1206;62099;-74
2021/09/12 07:42:47;;;;;;;16.30;11.50;;;;;;;17.73;95.94;101007.27;110556;1208;61900;-74
2021/09/12 07:45:14;;;;;;;15.70;10.90;;;;;;;17.70;95.91;101007.84;111192;1207;72720;-75
2021/09/12 07:47:41;;;;;;;12.60;7.30;;;;;;;17.67;96.45;101009.38;110559;1207;63101;-74
2021/09/12 07:50:08;;;;;;;16.20;11.50;;;;;;;17.63;96.81;101013.59;110565;1207;62018;-76
2021/09/12 07:52:36;;;;;;;15.10;8.90;;;;;;;17.58;97.31;101011.95;110620;1207;76425;-73
2021/09/12 07:55:03;;;;;;;16.90;10.50;;;;;;;17.55;96.93;101014.67;110706;1207;71805;-74
2021/09/12 07:57:29;;;;;;;11.40;7.50;;;;;;;17.55;96.98;101014.38;110538;1207;72512;-74
2021/09/12 07:59:57;;;;;;;13.80;9.20;;;;;;;17.59;97.00;101012.89;110549;1199;61976;-74
2021/09/12 08:02:24;;;;;;;15.60;10.20;;;;;;;17.63;97.07;101017.98;110482;1208;61990;-74
2021/09/12 08:04:51;;;;;;;17.90;10.60;;;;;;;17.66;96.94;101013.58;110528;1207;75065;-74
2021/09/12 08:07:18;;;;;;;15.60;10.40;;;;;;;17.72;97.34;101017.86;110710;1206;61872;-73
2021/09/12 08:09:45;;;;;;;14.80;9.80;;;;;;;17.76;96.73;101023.38;111162;1198;72706;-74
2021/09/12 08:12:12;;;;;;;14.40;9.40;;;;;;;17.81;96.44;101025.13;110514;1206;61925;-74
2021/09/12 08:14:38;;;;;;;13.30;9.60;;;;;;;17.91;96.73;101027.48;110524;1207;61924;-74
2021/09/12 08:17:05;;;;;;;16.40;10.40;;;;;;;17.97;96.23;101029.73;110539;1207;61860;-76
2021/09/12 08:19:32;;;;;;;13.20;8.60;;;;;;;17.99;96.13;101030.88;110755;1206;71969;-75
2021/09/12 08:21:59;;;;;;;15.00;8.40;;;;;;;18.02;96.14;101031.18;110875;1207;72482;-76
2021/09/12 08:24:25;;;;;;;9.60;6.10;;;;;;;18.04;95.66;101030.64;110591;1206;62865;-75
2021/09/12 08:26:52;;;;;;;6.60;4.70;;;;;;;18.02;95.51;101031.02;110634;1206;61978;-75
2021/09/12 08:29:18;;;;;;;8.10;5.00;;;;;;;17.94;95.49;101031.77;110827;1208;62644;-74
2021/09/12 08:31:45;;;;;;;4.80;3.40;;;;;;;17.84;96.16;101030.95;110747;1206;61982;-75
2021/09/12 08:34:12;;;;;;;5.20;3.30;;;;;;;17.74;95.79;101031.80;110532;1207;61995;-75
2021/09/12 08:36:38;;;;;;;3.00;2.10;;;;;;;17.67;96.11;101036.33;110796;1206;61895;-76
2021/09/12 08:39:05;;;;;;;3.40;2.50;;;;;;;17.65;96.60;101038.33;110555;1207;62580;-74
2021/09/12 08:41:32;;;;;;;4.30;2.20;;;;;;;17.61;97.16;101039.95;110560;1206;75248;-75
2021/09/12 08:43:59;;;;;;;3.60;1.90;;;;;;;17.60;97.46;101037.20;110559;1207;71008;-75
2021/09/12 08:46:26;;;;;;;5.10;2.90;;;;;;;17.57;97.67;101042.33;110738;1199;73669;-75
2021/09/12 08:48:53;;;;;;;5.10;2.20;;;;;;;17.54;97.65;101043.36;110509;1207;62076;-75
2021/09/12 08:51:19;;;;;;;4.30;2.70;;;;;;;17.54;97.64;101043.79;110621;1207;61870;-77
2021/09/12 08:53:48;;;;;;;3.40;2.70;;;;;;;17.57;97.57;101044.64;110737;1199;75486;-74
2021/09/12 08:56:15;;;;;;;4.60;3.10;;;;;;;17.64;97.50;101044.36;110550;1198;70938;-74
2021/09/12 08:58:41;;;;;;;4.90;3.50;;;;;;;17.75;97.04;101049.59;110590;1207;71951;-75
2021/09/12 09:01:08;;;;;;;6.70;3.70;;;;;;;17.88;96.55;101039.19;110605;1207;61908;-73
2021/09/12 09:03:41;;;;;;;5.50;3.30;;;;;;;18.04;95.74;101041.08;110716;1206;61891;-74
2021/09/12 09:06:17;;;;;;;7.80;4.00;;;;;;;18.22;94.82;101046.42;110943;1199;75128;-74
2021/09/12 09:08:55;;;;;;;7.00;4.00;;;;;;;18.38;93.56;101047.21;110768;1206;71340;-75
2021/09/12 09:11:29;;;;;;;7.00;4.10;;;;;;;18.51;92.42;101047.48;110687;1206;73766;-75
2021/09/12 09:14:10;;;;;;;6.20;4.10;;;;;;;18.59;90.67;101053.01;110800;1206;61952;-74
2021/09/12 09:16:37;;;;;;;5.00;3.90;;;;;;;18.64;89.95;101047.96;110763;1206;61916;-76
2021/09/12 09:19:06;;;;;;;7.00;4.60;;;;;;;18.62;88.37;101048.36;110851;1208;75116;-72
2021/09/12 09:21:42;;;;;;;7.10;4.30;;;;;;;18.64;88.88;101045.64;111041;1206;70988;-74
2021/09/12 09:24:13;;;;;;;8.40;4.40;;;;;;;18.70;88.55;101049.19;110809;1207;73111;-74
2021/09/12 09:27:00;;;;;;;7.80;4.40;;;;;;;18.73;86.20;101045.98;110632;1206;61814;-75
2021/09/12 09:29:35;;;;;;;6.80;4.80;;;;;;;18.75;85.80;101053.19;110557;1208;61899;-75
2021/09/12 09:32:09;;;;;;;6.20;4.60;;;;;;;18.79;86.01;101048.11;110616;1207;76454;-76
2021/09/12 09:34:38;;;;;;;10.50;5.20;;;;;;;18.76;85.51;101050.38;110878;1199;72095;-76
2021/09/12 09:37:12;;;;;;;5.30;3.20;;;;;;;18.78;85.44;101046.61;110931;1207;73639;-77
2021/09/12 09:39:54;;;;;;;7.20;4.90;;;;;;;18.78;85.38;101045.88;110796;1206;61903;-82
2021/09/12 09:42:38;;;;;;;5.60;4.30;;;;;;;18.75;83.96;101049.52;110469;1200;62502;-76
2021/09/12 09:45:10;;;;;;;7.40;4.40;;;;;;;18.66;82.89;101051.13;110709;1206;75324;-75
2021/09/12 09:47:39;;;;;;;6.60;4.70;;;;;;;18.62;83.69;101050.73;110609;1206;72138;-78
2021/09/12 09:50:16;;;;;;;8.60;4.80;;;;;;;18.59;83.71;101054.02;111351;1198;72586;-76
2021/09/12 09:52:54;;;;;;;8.80;4.10;;;;;;;18.57;83.61;101057.20;110667;1206;61965;-78
2021/09/12 09:55:23;;;;;;;5.80;4.60;;;;;;;18.59;83.24;101057.63;110655;1207;61897;-77
2021/09/12 09:57:53;;;;;;;7.90;5.60;;;;;;;18.62;83.15;101059.34;110679;1201;76964;-75
2021/09/12 10:00:21;;;;;;;8.20;4.80;;;;;;;18.65;82.82;101060.52;114376;1198;70977;-77
2021/09/12 10:02:50;;;;;;;7.10;3.70;;;;;;;18.74;82.68;101060.15;110753;1207;72615;-77
2021/09/12 10:05:18;;;;;;;8.00;4.20;;;;;;;18.84;82.58;101055.42;110759;1199;62773;-75
2021/09/12 10:07:44;;;;;;;6.20;3.70;;;;;;;18.96;81.90;101058.45;110591;1206;61908;-77
2021/09/12 10:10:13;;;;;;;8.30;5.10;;;;;;;19.05;80.95;101061.64;110537;1204;75490;-78
2021/09/12 10:13:02;;;;;;;6.00;4.70;;;;;;;19.15;80.88;101064.34;110801;1206;71663;-79
2021/09/12 10:15:39;;;;;;;9.60;4.60;;;;;;;19.32;80.30;101066.16;110597;1206;73131;-78
2021/09/12 10:18:09;;;;;;;7.20;3.70;;;;;;;19.43;79.90;101060.56;110782;1206;61953;-78
2021/09/12 10:20:37;;;;;;;5.90;4.20;;;;;;;19.53;79.67;101059.45;110714;1206;61854;-78
2021/09/12 10:23:12;;;;;;;5.10;3.90;;;;;;;19.67;78.92;101054.66;110694;1206;75260;-77
2021/09/12 10:25:47;;;;;;;;;;;;;;;19.81;77.98;101049.48;110616;1207;71175;-76
2021/09/12 10:28:27;;;;;;;6.60;4.40;;;;;;;19.95;77.34;101049.42;110857;1206;73576;-77
2021/09/12 10:30:54;;;;;;;7.50;4.50;;;;;;;20.15;77.25;101044.83;110811;1206;61909;-77
2021/09/12 10:33:26;;;;;;;9.60;5.50;;;;;;;20.32;76.69;101047.21;110540;1202;61829;-76
2021/09/12 10:35:58;;;;;;;11.60;5.60;;;;;;;20.48;74.60;101050.17;110642;1206;74320;-78
2021/09/12 10:38:38;;;;;;;6.80;4.60;;;;;;;20.55;73.35;101044.16;110636;1207;70993;-77
2021/09/12 10:41:04;;;;;;;7.90;5.10;;;;;;;20.68;73.59;101037.91;110527;1198;73806;-76
2021/09/12 10:43:30;;;;;;;7.20;4.20;;;;;;;20.78;73.00;101038.20;110680;1206;61880;-77
2021/09/12 10:45:57;;;;;;;8.00;4.50;;;;;;;20.82;71.87;101035.70;110756;1206;61908;-77
2021/09/12 10:48:24;;;;;;;5.70;4.30;;;;;;;20.82;72.29;101036.89;110752;1206;61895;-76
2021/09/12 10:50:51;;;;;;;5.90;4.20;;;;;;;20.93;72.99;101040.27;110880;1205;70958;-77
2021/09/12 10:53:44;;;;;;;8.40;4.70;;;;;;;21.05;71.19;101035.84;110589;1203;72541;-75
2021/09/12 10:56:17;;;;;;;7.60;4.90;;;;;;;21.21;71.38;101032.63;110530;1205;61896;-77
2021/09/12 10:58:46;;;;;;;8.20;4.60;;;;;;;21.52;70.27;101025.98;110571;1206;62768;-77
2021/09/12 11:01:33;;;;;;;6.50;5.10;;;;;;;21.80;69.65;101032.52;110713;1207;75489;-78
2021/09/12 11:04:02;;;;;;;9.10;5.40;;;;;;;22.06;67.41;101033.58;111761;1206;70770;-78
2021/09/12 11:06:38;;;;;;;6.10;3.90;;;;;;;22.07;66.47;101029.66;110945;1206;72246;-77
2021/09/12 11:09:15;;;;;;;7.60;4.80;;;;;;;22.22;67.08;101028.55;110591;1206;62015;-77
2021/09/12 11:11:43;;;;;;;10.10;4.60;;;;;;;22.46;65.85;101028.13;110753;1208;61856;-77
2021/09/12 11:14:14;;;;;;;12.60;4.50;;;;;;;22.60;63.23;101026.62;110647;1207;75717;-78
2021/09/12 11:16:41;;;;;;;6.20;3.30;;;;;;;22.72;63.40;101032.76;110637;1206;72348;-78